hintergrundbild

 METAR AND TAF INFORMATION
METAR FOR LGKR
ADDS - METARS form results

(1145 UTC 07 July 2020)
Data provider http://aviationweather.gov/metar/data/
 
METAR text: LGKR 071120Z VRB03KT CAVOK 32/19 Q1004 NOSIG
Conditions at: LGKR (IOANNIS KAPODIST, GR) observed 1120 UTC 07 July 2020
Temperature: 32.0°C (90°F)
Dewpoint: 19.0°C (66°F) [RH = 46%]
Pressure (altimeter): 29.65 inches Hg (1004.0 mb)
Winds: variable direction winds at 3 MPH (3 knots; 1.5 m/s)
Visibility: 6 or more miles (10+ km)
Ceiling: ceiling and visibility are OK
Clouds: unknown
Weather: no significant weather observed at this time

METAR text: LGKR 071050Z 07004KT CAVOK 31/19 Q1004 NOSIG
Conditions at: LGKR (IOANNIS KAPODIST, GR) observed 1050 UTC 07 July 2020
Temperature: 31.0°C (88°F)
Dewpoint: 19.0°C (66°F) [RH = 49%]
Pressure (altimeter): 29.65 inches Hg (1004.0 mb)
Winds: from the ENE (70 degrees) at 5 MPH (4 knots; 2.1 m/s)
Visibility: 6 or more miles (10+ km)
Ceiling: ceiling and visibility are OK
Clouds: unknown
Weather: no significant weather observed at this time

Forecast for: LGKR (IOANNIS KAPODIST, GR)
Text: TAF LGKR 071100Z 0712/0812 33014KT 9999 FEW025 SCT040
Forecast period: 1200 UTC 07 July 2020 to 1200 UTC 08 July 2020
Forecast type: FROM: standard forecast or significant change
Winds: from the NNW (330 degrees) at 16 MPH (14 knots; 7.2 m/s)
Visibility: 6 or more miles 10+ km)
Ceiling: at least 12,000 feet AGL
Clouds: few clouds at 2500 feet AGL
scattered clouds at 4000 feet AGL
Weather: no significant weather forecast for this period

 AIRPORT MAP

 RUNWAY INFORMATION
Runway 17 Runway length 7792 ft Runway width 148 ft
Runway elevation 5 ft Runway displaced threshold 1348 ft Runway heading 169
Runway 35 Runway length 7792 ft Runway width 148 ft
Runway elevation 5 ft Runway displaced threshold 213 ft Runway heading 349

 AIRPORT FREQUENCIES
Type A/G Name KERKIRA RD Frequency 563.7 MHZ
Type APP Name KERKIRA AP Frequency 118.075 MHZ
Type ATIS Name ATIS Frequency 126.35 MHZ
Type TWR Name KERKIRA TW Frequency 120.85 MHZ

 AIRPORT NEAR NAVIGATION AIDS
Type VOR-DME Name Garitsa Frequency 108800 KHZ
Type NDB Name Kerkira Frequency 403 KHZ
Type VOR-DME Name Kerkira Frequency 114700 KHZ



Impressum